Saffet Bey — TCUZ — position and weather

sailwx.info

Track history (hours):
 
Tides and Currents Weather Stations Pressure Air Temp Water Temp Dewpoint Dewpoint Depression Visibility Wind Speed Wind Dir Waves Ship Positions

Saffet Bey

Last reported at 2017-Oct-18 11:30 UTC. Time now 2017-Oct-18 11:47 UTC.
Position N 44°05' E 014°13'.

Length 164 m; draft 6.9 m.

Type: Cargo ship. MMSI: 271000419.

Date/timePositionNaut miles runAvg speedWind from/ knotsBaromVisibWave heightAir tempDewpointWater temp
2017-Oct-18 11:30N 44°05' E 014°13'815.2
2017-Oct-18 11:00N 43°59' E 014°19'815.2
2017-Oct-18 10:28N 43°52' E 014°26'715.4
2017-Oct-18 10:00N 43°47' E 014°32'1015.5
2017-Oct-18 09:23N 43°39' E 014°40'615.5
2017-Oct-18 09:00N 43°34' E 014°46'1915.3
2017-Oct-18 07:46N 43°20' E 015°02'16615.2
2017-Oct-17 20:50N 41°16' E 017°31'815.4
2017-Oct-17 20:20N 41°11' E 017°38'615.4
2017-Oct-17 19:58N 41°06' E 017°44'815.4
2017-Oct-17 19:28N 41°01' E 017°51'815.5
2017-Oct-17 18:59N 40°55' E 017°57'715.7
2017-Oct-17 18:31N 40°49' E 018°03'815.4
2017-Oct-17 18:00N 40°44' E 018°10'714.8
2017-Oct-17 17:31N 40°38' E 018°16'714.7
2017-Oct-17 17:00N 40°32' E 018°22'815.2
2017-Oct-17 16:31N 40°27' E 018°29'714.5
2017-Oct-17 16:00N 40°21' E 018°35'714.4
2017-Oct-17 15:31N 40°15' E 018°40'714.5
2017-Oct-17 15:00N 40°09' E 018°45'5714.9
2017-Oct-17 11:12N 39°20' E 019°24'315.4
2017-Oct-17 11:00N 39°18' E 019°25'815.5
2017-Oct-17 10:30N 39°11' E 019°30'815.4
2017-Oct-17 10:01N 39°04' E 019°35'815.1
2017-Oct-17 09:30N 38°58' E 019°40'815.4
2017-Oct-17 09:01N 38°51' E 019°45'815.3
2017-Oct-17 08:31N 38°45' E 019°50'815.3
2017-Oct-17 08:01N 38°38' E 019°55'2014.5
2017-Oct-17 06:36N 38°21' E 020°09'114.5
2017-Oct-17 06:31N 38°20' E 020°10'2915.0
2017-Oct-17 04:34N 37°55' E 020°30'115.0
2017-Oct-17 04:30N 37°55' E 020°30'20712.2
2017-Oct-16 11:29N 37°16' E 024°47'816.3
2017-Oct-16 11:01N 37°20' E 024°55'816.1
2017-Oct-16 10:30N 37°25' E 025°03'815.9
2017-Oct-16 10:00N 37°29' E 025°11'816.3
2017-Oct-16 09:30N 37°35' E 025°19'815.7
2017-Oct-16 09:00N 37°40' E 025°26'815.7
2017-Oct-16 08:30N 37°46' E 025°33'815.5
2017-Oct-16 08:00N 37°51' E 025°40'0 0.0
2017-Oct-15 17:10N 37°51' E 025°40'212.7
2017-Oct-15 17:00N 37°50' E 025°38'612.2
2017-Oct-15 16:30N 37°46' E 025°33'611.6
2017-Oct-15 16:00N 37°41' E 025°28'611.2
2017-Oct-15 15:30N 37°37' E 025°23'510.4
2017-Oct-15 15:00N 37°34' E 025°18'1212.2
2017-Oct-15 14:00N 37°26' E 025°06'612.6
2017-Oct-15 13:30N 37°22' E 024°60'612.9
2017-Oct-15 13:00N 37°19' E 024°53'36411.4
2017-Oct-14 04:59N 40°33' E 018°18'28415.3
2017-Oct-13 10:27N 44°07' E 014°05'715.3
2017-Oct-13 10:00N 44°12' E 013°58'1115.4
2017-Oct-13 09:17N 44°21' E 013°49'415.4
2017-Oct-13 09:00N 44°25' E 013°46'815.1
2017-Oct-13 08:30N 44°31' E 013°40'715.0
2017-Oct-13 08:00N 44°37' E 013°34'815.2
2017-Oct-13 07:30N 44°43' E 013°28'815.0
2017-Oct-13 07:00N 44°49' E 013°22'714.7
2017-Oct-13 06:30N 44°56' E 013°17'714.8
2017-Oct-13 06:00N 45°02' E 013°11'714.9
2017-Oct-13 05:30N 45°08' E 013°06'714.7
2017-Oct-13 05:00N 45°15' E 013°03'714.4
2017-Oct-13 04:30N 45°23' E 013°03'714.6
2017-Oct-13 04:00N 45°28' E 013°09'714.8
2017-Oct-13 03:30N 45°33' E 013°17'714.6
2017-Oct-13 03:00N 45°36' E 013°27'714.1
2017-Oct-13 02:30N 45°38' E 013°36'611.1
2017-Oct-13 02:00N 45°38' E 013°44'1 1.8
2017-Oct-13 01:30N 45°38' E 013°46'0 0.0
2017-Oct-13 01:00N 45°38' E 013°46'0 0.0
2017-Oct-13 00:30N 45°38' E 013°46'0 0.0
2017-Oct-13 00:00N 45°38' E 013°46'0 0.0
2017-Oct-12 23:30N 45°38' E 013°46'0 0.0
2017-Oct-12 23:00N 45°38' E 013°46'0 0.0
2017-Oct-12 22:30N 45°38' E 013°46'0 0.0
2017-Oct-12 22:00N 45°38' E 013°46'0 0.0
2017-Oct-12 21:30N 45°38' E 013°46'0 0.0
2017-Oct-12 21:00N 45°38' E 013°46'0 0.0
2017-Oct-12 20:30N 45°38' E 013°46'0 0.0
2017-Oct-12 20:00N 45°38' E 013°46'0 0.0
2017-Oct-12 19:30N 45°38' E 013°46'0 0.0
2017-Oct-12 19:00N 45°38' E 013°46'0 0.0
2017-Oct-12 18:30N 45°38' E 013°46'0 0.0
2017-Oct-12 18:00N 45°38' E 013°46'0 0.0
2017-Oct-12 17:30N 45°38' E 013°46'0 0.0
2017-Oct-12 17:00N 45°38' E 013°46'0 0.0
2017-Oct-12 16:30N 45°38' E 013°46'0 0.0
2017-Oct-12 16:00N 45°38' E 013°46'0 0.0
2017-Oct-12 15:30N 45°38' E 013°46'0 0.0
2017-Oct-12 15:00N 45°38' E 013°46'0 0.0
2017-Oct-12 14:30N 45°38' E 013°46'0 0.0
2017-Oct-12 14:00N 45°38' E 013°46'0 0.0
2017-Oct-12 13:30N 45°38' E 013°46'0 0.0
2017-Oct-12 13:00N 45°38' E 013°46'0 0.0
2017-Oct-12 12:30N 45°38' E 013°46'0 0.0
2017-Oct-12 12:00N 45°38' E 013°46'0 0.0
2017-Oct-12 11:30N 45°38' E 013°46'0 0.0
2017-Oct-12 11:00N 45°38' E 013°46'0 0.0
2017-Oct-12 10:30N 45°38' E 013°46'0 0.0
2017-Oct-12 10:00N 45°38' E 013°46'0 0.0
2017-Oct-12 09:30N 45°38' E 013°46'0 0.0
2017-Oct-12 09:00N 45°38' E 013°46'0 0.0
2017-Oct-12 08:30N 45°38' E 013°46'0 0.0
2017-Oct-12 08:00N 45°38' E 013°46'0 0.0
2017-Oct-12 07:30N 45°38' E 013°46'0 0.0
2017-Oct-12 07:00N 45°38' E 013°46'0 0.0
2017-Oct-12 06:30N 45°38' E 013°46'0 0.0
2017-Oct-12 06:00N 45°38' E 013°46'0 0.0
2017-Oct-12 05:30N 45°38' E 013°46'0 0.0
2017-Oct-12 05:00N 45°38' E 013°46'0 0.0
2017-Oct-12 04:30N 45°38' E 013°46'0 0.0
2017-Oct-12 04:00N 45°38' E 013°46'0 0.0
2017-Oct-12 03:30N 45°38' E 013°46'0 0.0
2017-Oct-12 03:00N 45°38' E 013°46'0 0.0
2017-Oct-12 02:30N 45°38' E 013°46'0 0.0
2017-Oct-12 02:00N 45°38' E 013°46'0 0.0
2017-Oct-12 01:30N 45°38' E 013°46'0 0.0
2017-Oct-12 01:00N 45°38' E 013°46'0 0.0
2017-Oct-12 00:30N 45°38' E 013°46'0 0.0
2017-Oct-12 00:00N 45°38' E 013°46'0 0.0
2017-Oct-11 23:30N 45°38' E 013°46'0 0.0
2017-Oct-11 23:00N 45°38' E 013°46'0 0.0
2017-Oct-11 22:30N 45°38' E 013°46'0 0.0
2017-Oct-11 22:00N 45°38' E 013°46'0 0.0
2017-Oct-11 21:30N 45°38' E 013°46'0 0.0
2017-Oct-11 21:00N 45°38' E 013°46'0 0.0
2017-Oct-11 20:30N 45°38' E 013°46'0 0.0
2017-Oct-11 20:00N 45°38' E 013°46'0 0.0
2017-Oct-11 19:30N 45°38' E 013°46'0 0.0
2017-Oct-11 19:00N 45°38' E 013°46'0 0.0
2017-Oct-11 18:30N 45°38' E 013°46'0 0.0
2017-Oct-11 18:00N 45°38' E 013°46'0 0.0
2017-Oct-11 17:30N 45°38' E 013°46'0 0.0
2017-Oct-11 17:00N 45°38' E 013°46'  
2017-Oct-09 07:08N 37°15' E 024°47'215.8
2017-Oct-09 07:00N 37°17' E 024°49'815.7
2017-Oct-09 06:31N 37°21' E 024°57'815.0
2017-Oct-09 06:01N 37°26' E 025°04'815.5
2017-Oct-09 05:31N 37°30' E 025°12'815.2
2017-Oct-09 05:01N 37°35' E 025°20'815.3
2017-Oct-09 04:31N 37°41' E 025°26'815.2
2017-Oct-09 04:01N 37°46' E 025°33'8 0.5
2017-Oct-08 12:06N 37°50' E 025°41'113.6
2017-Oct-08 12:00N 37°49' E 025°40'  
Track history (hours):
 
Tides and Currents Weather Stations Pressure Air Temp Water Temp Dewpoint Dewpoint Depression Visibility Wind Speed Wind Dir Waves Ship Positions

Saffet Bey

Last reported at 2017-Oct-18 11:30 UTC. Time now 2017-Oct-18 11:47 UTC.
Position N 44°05' E 014°13'.

Length 164 m; draft 6.9 m.

Type: Cargo ship. MMSI: 271000419.

Date/timePositionNaut miles runAvg speedWind from/ knotsBaromVisibWave heightAir tempDewpointWater temp
2017-Oct-18 11:30N 44°05' E 014°13'815.2
2017-Oct-18 11:00N 43°59' E 014°19'815.2
2017-Oct-18 10:28N 43°52' E 014°26'715.4
2017-Oct-18 10:00N 43°47' E 014°32'1015.5
2017-Oct-18 09:23N 43°39' E 014°40'615.5
2017-Oct-18 09:00N 43°34' E 014°46'1915.3
2017-Oct-18 07:46N 43°20' E 015°02'16615.2
2017-Oct-17 20:50N 41°16' E 017°31'815.4
2017-Oct-17 20:20N 41°11' E 017°38'615.4
2017-Oct-17 19:58N 41°06' E 017°44'815.4
2017-Oct-17 19:28N 41°01' E 017°51'815.5
2017-Oct-17 18:59N 40°55' E 017°57'715.7
2017-Oct-17 18:31N 40°49' E 018°03'815.4
2017-Oct-17 18:00N 40°44' E 018°10'714.8
2017-Oct-17 17:31N 40°38' E 018°16'714.7
2017-Oct-17 17:00N 40°32' E 018°22'815.2
2017-Oct-17 16:31N 40°27' E 018°29'714.5
2017-Oct-17 16:00N 40°21' E 018°35'714.4
2017-Oct-17 15:31N 40°15' E 018°40'714.5
2017-Oct-17 15:00N 40°09' E 018°45'5714.9
2017-Oct-17 11:12N 39°20' E 019°24'315.4
2017-Oct-17 11:00N 39°18' E 019°25'815.5
2017-Oct-17 10:30N 39°11' E 019°30'815.4
2017-Oct-17 10:01N 39°04' E 019°35'815.1
2017-Oct-17 09:30N 38°58' E 019°40'815.4
2017-Oct-17 09:01N 38°51' E 019°45'815.3
2017-Oct-17 08:31N 38°45' E 019°50'815.3
2017-Oct-17 08:01N 38°38' E 019°55'2014.5
2017-Oct-17 06:36N 38°21' E 020°09'114.5
2017-Oct-17 06:31N 38°20' E 020°10'2915.0
2017-Oct-17 04:34N 37°55' E 020°30'115.0
2017-Oct-17 04:30N 37°55' E 020°30'20712.2
2017-Oct-16 11:29N 37°16' E 024°47'816.3
2017-Oct-16 11:01N 37°20' E 024°55'816.1
2017-Oct-16 10:30N 37°25' E 025°03'815.9
2017-Oct-16 10:00N 37°29' E 025°11'816.3
2017-Oct-16 09:30N 37°35' E 025°19'815.7
2017-Oct-16 09:00N 37°40' E 025°26'815.7
2017-Oct-16 08:30N 37°46' E 025°33'815.5
2017-Oct-16 08:00N 37°51' E 025°40'0 0.0
2017-Oct-15 17:10N 37°51' E 025°40'212.7
2017-Oct-15 17:00N 37°50' E 025°38'612.2
2017-Oct-15 16:30N 37°46' E 025°33'611.6
2017-Oct-15 16:00N 37°41' E 025°28'611.2
2017-Oct-15 15:30N 37°37' E 025°23'510.4
2017-Oct-15 15:00N 37°34' E 025°18'1212.2
2017-Oct-15 14:00N 37°26' E 025°06'612.6
2017-Oct-15 13:30N 37°22' E 024°60'612.9
2017-Oct-15 13:00N 37°19' E 024°53'36411.4
2017-Oct-14 04:59N 40°33' E 018°18'28415.3
2017-Oct-13 10:27N 44°07' E 014°05'715.3
2017-Oct-13 10:00N 44°12' E 013°58'1115.4
2017-Oct-13 09:17N 44°21' E 013°49'415.4
2017-Oct-13 09:00N 44°25' E 013°46'815.1
2017-Oct-13 08:30N 44°31' E 013°40'715.0
2017-Oct-13 08:00N 44°37' E 013°34'815.2
2017-Oct-13 07:30N 44°43' E 013°28'815.0
2017-Oct-13 07:00N 44°49' E 013°22'714.7
2017-Oct-13 06:30N 44°56' E 013°17'714.8
2017-Oct-13 06:00N 45°02' E 013°11'714.9
2017-Oct-13 05:30N 45°08' E 013°06'714.7
2017-Oct-13 05:00N 45°15' E 013°03'714.4
2017-Oct-13 04:30N 45°23' E 013°03'714.6
2017-Oct-13 04:00N 45°28' E 013°09'714.8
2017-Oct-13 03:30N 45°33' E 013°17'714.6
2017-Oct-13 03:00N 45°36' E 013°27'714.1
2017-Oct-13 02:30N 45°38' E 013°36'611.1
2017-Oct-13 02:00N 45°38' E 013°44'1 1.8
2017-Oct-13 01:30N 45°38' E 013°46'0 0.0
2017-Oct-13 01:00N 45°38' E 013°46'0 0.0
2017-Oct-13 00:30N 45°38' E 013°46'0 0.0
2017-Oct-13 00:00N 45°38' E 013°46'0 0.0
2017-Oct-12 23:30N 45°38' E 013°46'0 0.0
2017-Oct-12 23:00N 45°38' E 013°46'0 0.0
2017-Oct-12 22:30N 45°38' E 013°46'0 0.0
2017-Oct-12 22:00N 45°38' E 013°46'0 0.0
2017-Oct-12 21:30N 45°38' E 013°46'0 0.0
2017-Oct-12 21:00N 45°38' E 013°46'0 0.0
2017-Oct-12 20:30N 45°38' E 013°46'0 0.0
2017-Oct-12 20:00N 45°38' E 013°46'0 0.0
2017-Oct-12 19:30N 45°38' E 013°46'0 0.0
2017-Oct-12 19:00N 45°38' E 013°46'0 0.0
2017-Oct-12 18:30N 45°38' E 013°46'0 0.0
2017-Oct-12 18:00N 45°38' E 013°46'0 0.0
2017-Oct-12 17:30N 45°38' E 013°46'0 0.0
2017-Oct-12 17:00N 45°38' E 013°46'0 0.0
2017-Oct-12 16:30N 45°38' E 013°46'0 0.0
2017-Oct-12 16:00N 45°38' E 013°46'0 0.0
2017-Oct-12 15:30N 45°38' E 013°46'0 0.0
2017-Oct-12 15:00N 45°38' E 013°46'0 0.0
2017-Oct-12 14:30N 45°38' E 013°46'0 0.0
2017-Oct-12 14:00N 45°38' E 013°46'0 0.0
2017-Oct-12 13:30N 45°38' E 013°46'0 0.0
2017-Oct-12 13:00N 45°38' E 013°46'0 0.0
2017-Oct-12 12:30N 45°38' E 013°46'0 0.0
2017-Oct-12 12:00N 45°38' E 013°46'0 0.0
2017-Oct-12 11:30N 45°38' E 013°46'0 0.0
2017-Oct-12 11:00N 45°38' E 013°46'0 0.0
2017-Oct-12 10:30N 45°38' E 013°46'0 0.0
2017-Oct-12 10:00N 45°38' E 013°46'0 0.0
2017-Oct-12 09:30N 45°38' E 013°46'0 0.0
2017-Oct-12 09:00N 45°38' E 013°46'0 0.0
2017-Oct-12 08:30N 45°38' E 013°46'0 0.0
2017-Oct-12 08:00N 45°38' E 013°46'0 0.0
2017-Oct-12 07:30N 45°38' E 013°46'0 0.0
2017-Oct-12 07:00N 45°38' E 013°46'0 0.0
2017-Oct-12 06:30N 45°38' E 013°46'0 0.0
2017-Oct-12 06:00N 45°38' E 013°46'0 0.0
2017-Oct-12 05:30N 45°38' E 013°46'0 0.0
2017-Oct-12 05:00N 45°38' E 013°46'0 0.0
2017-Oct-12 04:30N 45°38' E 013°46'0 0.0
2017-Oct-12 04:00N 45°38' E 013°46'0 0.0
2017-Oct-12 03:30N 45°38' E 013°46'0 0.0
2017-Oct-12 03:00N 45°38' E 013°46'0 0.0
2017-Oct-12 02:30N 45°38' E 013°46'0 0.0
2017-Oct-12 02:00N 45°38' E 013°46'0 0.0
2017-Oct-12 01:30N 45°38' E 013°46'0 0.0
2017-Oct-12 01:00N 45°38' E 013°46'0 0.0
2017-Oct-12 00:30N 45°38' E 013°46'0 0.0
2017-Oct-12 00:00N 45°38' E 013°46'0 0.0
2017-Oct-11 23:30N 45°38' E 013°46'0 0.0
2017-Oct-11 23:00N 45°38' E 013°46'0 0.0
2017-Oct-11 22:30N 45°38' E 013°46'0 0.0
2017-Oct-11 22:00N 45°38' E 013°46'0 0.0
2017-Oct-11 21:30N 45°38' E 013°46'0 0.0
2017-Oct-11 21:00N 45°38' E 013°46'0 0.0
2017-Oct-11 20:30N 45°38' E 013°46'0 0.0
2017-Oct-11 20:00N 45°38' E 013°46'0 0.0
2017-Oct-11 19:30N 45°38' E 013°46'0 0.0
2017-Oct-11 19:00N 45°38' E 013°46'0 0.0
2017-Oct-11 18:30N 45°38' E 013°46'0 0.0
2017-Oct-11 18:00N 45°38' E 013°46'0 0.0
2017-Oct-11 17:30N 45°38' E 013°46'0 0.0
2017-Oct-11 17:00N 45°38' E 013°46'  
2017-Oct-09 07:08N 37°15' E 024°47'215.8
2017-Oct-09 07:00N 37°17' E 024°49'815.7
2017-Oct-09 06:31N 37°21' E 024°57'815.0
2017-Oct-09 06:01N 37°26' E 025°04'815.5
2017-Oct-09 05:31N 37°30' E 025°12'815.2
2017-Oct-09 05:01N 37°35' E 025°20'815.3
2017-Oct-09 04:31N 37°41' E 025°26'815.2
2017-Oct-09 04:01N 37°46' E 025°33'8 0.5
2017-Oct-08 12:06N 37°50' E 025°41'113.6
2017-Oct-08 12:00N 37°49' E 025°40'  

Dump ship's entire track history